sensor_id;sensor_type;location;lat;lon;timestamp;P1;durP1;ratioP1;P2;durP2;ratioP2
13267;SDS011;6702;47.068;15.458;2022-08-02T00:01:42;5.17;;;4.80;;
13267;SDS011;6702;47.068;15.458;2022-08-02T00:04:45;4.80;;;4.50;;
13267;SDS011;6702;47.068;15.458;2022-08-02T00:07:50;5.50;;;5.10;;
13267;SDS011;6702;47.068;15.458;2022-08-02T00:10:54;4.93;;;4.53;;
13267;SDS011;6702;47.068;15.458;2022-08-02T00:13:57;5.80;;;5.10;;
13267;SDS011;6702;47.068;15.458;2022-08-02T00:17:00;5.43;;;5.03;;
13267;SDS011;6702;47.068;15.458;2022-08-02T00:20:04;5.90;;;5.50;;
13267;SDS011;6702;47.068;15.458;2022-08-02T00:23:09;6.40;;;6.00;;
13267;SDS011;6702;47.068;15.458;2022-08-02T00:26:12;5.10;;;4.80;;
13267;SDS011;6702;47.068;15.458;2022-08-02T00:29:16;5.37;;;5.03;;
13267;SDS011;6702;47.068;15.458;2022-08-02T00:32:19;6.10;;;5.60;;
13267;SDS011;6702;47.068;15.458;2022-08-02T00:35:22;6.43;;;5.80;;
13267;SDS011;6702;47.068;15.458;2022-08-02T00:38:27;6.27;;;5.77;;
13267;SDS011;6702;47.068;15.458;2022-08-02T00:41:30;5.63;;;5.07;;
13267;SDS011;6702;47.068;15.458;2022-08-02T00:44:34;5.40;;;4.90;;
13267;SDS011;6702;47.068;15.458;2022-08-02T00:47:37;5.00;;;4.63;;
13267;SDS011;6702;47.068;15.458;2022-08-02T00:50:41;6.07;;;5.67;;
13267;SDS011;6702;47.068;15.458;2022-08-02T00:53:45;4.97;;;4.60;;
13267;SDS011;6702;47.068;15.458;2022-08-02T00:56:48;5.07;;;4.67;;
13267;SDS011;6702;47.068;15.458;2022-08-02T00:59:52;5.30;;;4.80;;
13267;SDS011;6702;47.068;15.458;2022-08-02T01:02:55;4.73;;;4.33;;
13267;SDS011;6702;47.068;15.458;2022-08-02T01:05:58;6.73;;;3.83;;
13267;SDS011;6702;47.068;15.458;2022-08-02T01:09:18;4.77;;;4.20;;
13267;SDS011;6702;47.068;15.458;2022-08-02T01:12:21;4.60;;;4.30;;
13267;SDS011;6702;47.068;15.458;2022-08-02T01:15:25;4.43;;;3.90;;
13267;SDS011;6702;47.068;15.458;2022-08-02T01:18:37;3.53;;;3.20;;
13267;SDS011;6702;47.068;15.458;2022-08-02T01:21:48;4.20;;;3.70;;
13267;SDS011;6702;47.068;15.458;2022-08-02T01:25:12;5.20;;;4.80;;
13267;SDS011;6702;47.068;15.458;2022-08-02T01:28:35;4.77;;;4.37;;
13267;SDS011;6702;47.068;15.458;2022-08-02T01:31:43;8.57;;;5.03;;
13267;SDS011;6702;47.068;15.458;2022-08-02T01:34:52;5.40;;;5.00;;
13267;SDS011;6702;47.068;15.458;2022-08-02T01:38:03;6.80;;;6.23;;
13267;SDS011;6702;47.068;15.458;2022-08-02T01:41:09;5.83;;;5.33;;
13267;SDS011;6702;47.068;15.458;2022-08-02T01:44:19;5.90;;;5.30;;
13267;SDS011;6702;47.068;15.458;2022-08-02T01:47:29;7.03;;;4.63;;
13267;SDS011;6702;47.068;15.458;2022-08-02T01:50:36;5.23;;;4.73;;
13267;SDS011;6702;47.068;15.458;2022-08-02T01:53:40;5.30;;;4.90;;
13267;SDS011;6702;47.068;15.458;2022-08-02T01:56:45;5.10;;;4.67;;
13267;SDS011;6702;47.068;15.458;2022-08-02T01:59:53;5.20;;;4.80;;
13267;SDS011;6702;47.068;15.458;2022-08-02T02:03:02;5.03;;;4.63;;
13267;SDS011;6702;47.068;15.458;2022-08-02T02:06:09;5.13;;;4.73;;
13267;SDS011;6702;47.068;15.458;2022-08-02T02:09:14;4.77;;;4.37;;
13267;SDS011;6702;47.068;15.458;2022-08-02T02:12:18;5.53;;;5.10;;
13267;SDS011;6702;47.068;15.458;2022-08-02T02:15:24;5.60;;;5.00;;
13267;SDS011;6702;47.068;15.458;2022-08-02T02:18:29;5.30;;;4.90;;
13267;SDS011;6702;47.068;15.458;2022-08-02T02:21:35;5.00;;;4.60;;
13267;SDS011;6702;47.068;15.458;2022-08-02T02:24:41;5.73;;;5.23;;
13267;SDS011;6702;47.068;15.458;2022-08-02T02:27:47;5.00;;;4.60;;
13267;SDS011;6702;47.068;15.458;2022-08-02T02:30:59;5.00;;;4.60;;
13267;SDS011;6702;47.068;15.458;2022-08-02T02:34:07;4.87;;;4.47;;
13267;SDS011;6702;47.068;15.458;2022-08-02T02:37:15;4.87;;;4.47;;
13267;SDS011;6702;47.068;15.458;2022-08-02T02:40:21;5.20;;;4.80;;
13267;SDS011;6702;47.068;15.458;2022-08-02T02:43:26;4.53;;;4.13;;
13267;SDS011;6702;47.068;15.458;2022-08-02T02:46:34;5.33;;;4.83;;
13267;SDS011;6702;47.068;15.458;2022-08-02T02:49:38;4.70;;;4.30;;
13267;SDS011;6702;47.068;15.458;2022-08-02T02:52:41;4.23;;;3.93;;
13267;SDS011;6702;47.068;15.458;2022-08-02T02:55:45;3.80;;;3.40;;
13267;SDS011;6702;47.068;15.458;2022-08-02T02:59:02;4.07;;;3.77;;
13267;SDS011;6702;47.068;15.458;2022-08-02T03:02:09;3.80;;;3.50;;
13267;SDS011;6702;47.068;15.458;2022-08-02T03:05:13;4.00;;;3.60;;
13267;SDS011;6702;47.068;15.458;2022-08-02T03:08:17;4.40;;;4.00;;
13267;SDS011;6702;47.068;15.458;2022-08-02T03:11:21;4.10;;;3.80;;
13267;SDS011;6702;47.068;15.458;2022-08-02T03:14:25;4.33;;;3.93;;
13267;SDS011;6702;47.068;15.458;2022-08-02T03:17:40;4.00;;;3.70;;
13267;SDS011;6702;47.068;15.458;2022-08-02T03:20:44;4.70;;;4.30;;
13267;SDS011;6702;47.068;15.458;2022-08-02T03:23:48;5.10;;;4.70;;
13267;SDS011;6702;47.068;15.458;2022-08-02T03:26:51;5.27;;;4.40;;
13267;SDS011;6702;47.068;15.458;2022-08-02T03:29:55;4.47;;;4.03;;
13267;SDS011;6702;47.068;15.458;2022-08-02T03:32:59;4.50;;;4.20;;
13267;SDS011;6702;47.068;15.458;2022-08-02T03:36:04;4.47;;;4.10;;
13267;SDS011;6702;47.068;15.458;2022-08-02T03:39:10;4.53;;;4.20;;
13267;SDS011;6702;47.068;15.458;2022-08-02T03:42:14;5.87;;;5.10;;
13267;SDS011;6702;47.068;15.458;2022-08-02T03:45:18;4.83;;;4.07;;
13267;SDS011;6702;47.068;15.458;2022-08-02T03:48:23;5.30;;;4.23;;
13267;SDS011;6702;47.068;15.458;2022-08-02T03:51:35;3.70;;;3.40;;
13267;SDS011;6702;47.068;15.458;2022-08-02T03:54:38;4.60;;;4.20;;
13267;SDS011;6702;47.068;15.458;2022-08-02T03:57:46;4.43;;;4.00;;
13267;SDS011;6702;47.068;15.458;2022-08-02T04:00:50;5.73;;;5.13;;
13267;SDS011;6702;47.068;15.458;2022-08-02T04:03:56;5.70;;;4.67;;
13267;SDS011;6702;47.068;15.458;2022-08-02T04:06:59;4.60;;;4.20;;
13267;SDS011;6702;47.068;15.458;2022-08-02T04:10:08;4.60;;;4.30;;
13267;SDS011;6702;47.068;15.458;2022-08-02T04:13:11;4.87;;;4.47;;
13267;SDS011;6702;47.068;15.458;2022-08-02T04:16:17;5.03;;;4.53;;
13267;SDS011;6702;47.068;15.458;2022-08-02T04:19:26;5.30;;;3.80;;
13267;SDS011;6702;47.068;15.458;2022-08-02T04:22:34;5.60;;;5.10;;
13267;SDS011;6702;47.068;15.458;2022-08-02T04:25:41;4.70;;;4.30;;
13267;SDS011;6702;47.068;15.458;2022-08-02T04:28:46;5.27;;;4.53;;
13267;SDS011;6702;47.068;15.458;2022-08-02T04:31:50;5.37;;;4.97;;
13267;SDS011;6702;47.068;15.458;2022-08-02T04:34:55;5.23;;;4.70;;
13267;SDS011;6702;47.068;15.458;2022-08-02T04:38:19;5.40;;;5.00;;
13267;SDS011;6702;47.068;15.458;2022-08-02T04:41:29;4.70;;;4.30;;
13267;SDS011;6702;47.068;15.458;2022-08-02T04:44:44;8.13;;;6.13;;
13267;SDS011;6702;47.068;15.458;2022-08-02T04:47:47;6.70;;;5.87;;
13267;SDS011;6702;47.068;15.458;2022-08-02T04:51:05;6.20;;;5.70;;
13267;SDS011;6702;47.068;15.458;2022-08-02T04:54:09;7.57;;;4.77;;
13267;SDS011;6702;47.068;15.458;2022-08-02T04:57:13;7.07;;;6.10;;
13267;SDS011;6702;47.068;15.458;2022-08-02T05:00:33;6.43;;;5.83;;
13267;SDS011;6702;47.068;15.458;2022-08-02T05:03:36;9.47;;;5.63;;
13267;SDS011;6702;47.068;15.458;2022-08-02T05:06:41;5.97;;;5.50;;
13267;SDS011;6702;47.068;15.458;2022-08-02T05:09:44;6.67;;;5.57;;
13267;SDS011;6702;47.068;15.458;2022-08-02T05:12:47;5.97;;;5.47;;
13267;SDS011;6702;47.068;15.458;2022-08-02T05:15:50;5.70;;;4.87;;
13267;SDS011;6702;47.068;15.458;2022-08-02T05:18:53;4.77;;;4.37;;
13267;SDS011;6702;47.068;15.458;2022-08-02T05:21:59;4.90;;;3.97;;
13267;SDS011;6702;47.068;15.458;2022-08-02T05:25:02;5.97;;;4.13;;
13267;SDS011;6702;47.068;15.458;2022-08-02T05:28:05;5.83;;;4.73;;
13267;SDS011;6702;47.068;15.458;2022-08-02T05:31:12;5.07;;;4.57;;
13267;SDS011;6702;47.068;15.458;2022-08-02T05:34:15;4.60;;;4.20;;
13267;SDS011;6702;47.068;15.458;2022-08-02T05:37:20;4.63;;;4.23;;
13267;SDS011;6702;47.068;15.458;2022-08-02T05:40:23;5.33;;;4.57;;
13267;SDS011;6702;47.068;15.458;2022-08-02T05:43:28;9.23;;;4.87;;
13267;SDS011;6702;47.068;15.458;2022-08-02T05:46:31;7.87;;;5.00;;
13267;SDS011;6702;47.068;15.458;2022-08-02T05:49:34;7.83;;;4.53;;
13267;SDS011;6702;47.068;15.458;2022-08-02T05:52:45;7.10;;;5.10;;
13267;SDS011;6702;47.068;15.458;2022-08-02T05:55:52;6.77;;;4.60;;
13267;SDS011;6702;47.068;15.458;2022-08-02T05:59:10;5.60;;;4.07;;
13267;SDS011;6702;47.068;15.458;2022-08-02T06:02:21;4.40;;;4.00;;
13267;SDS011;6702;47.068;15.458;2022-08-02T06:05:31;5.37;;;4.87;;
13267;SDS011;6702;47.068;15.458;2022-08-02T06:08:40;5.73;;;4.40;;
13267;SDS011;6702;47.068;15.458;2022-08-02T06:11:48;6.10;;;4.30;;
13267;SDS011;6702;47.068;15.458;2022-08-02T06:15:03;4.27;;;3.87;;
13267;SDS011;6702;47.068;15.458;2022-08-02T06:18:07;7.57;;;4.37;;
13267;SDS011;6702;47.068;15.458;2022-08-02T06:21:10;4.90;;;4.50;;
13267;SDS011;6702;47.068;15.458;2022-08-02T06:24:38;5.47;;;4.00;;
13267;SDS011;6702;47.068;15.458;2022-08-02T06:27:41;4.47;;;4.03;;
13267;SDS011;6702;47.068;15.458;2022-08-02T06:30:44;4.13;;;3.70;;
13267;SDS011;6702;47.068;15.458;2022-08-02T06:33:48;4.70;;;4.30;;
13267;SDS011;6702;47.068;15.458;2022-08-02T06:36:54;3.87;;;3.50;;
13267;SDS011;6702;47.068;15.458;2022-08-02T06:40:10;5.00;;;4.30;;
13267;SDS011;6702;47.068;15.458;2022-08-02T06:43:26;7.00;;;4.07;;
13267;SDS011;6702;47.068;15.458;2022-08-02T06:46:39;7.57;;;4.30;;
13267;SDS011;6702;47.068;15.458;2022-08-02T06:50:02;19.30;;;4.93;;
13267;SDS011;6702;47.068;15.458;2022-08-02T06:53:06;14.40;;;5.60;;
13267;SDS011;6702;47.068;15.458;2022-08-02T06:56:12;6.30;;;4.10;;
13267;SDS011;6702;47.068;15.458;2022-08-02T06:59:15;5.23;;;3.77;;
13267;SDS011;6702;47.068;15.458;2022-08-02T07:02:19;6.50;;;3.80;;
13267;SDS011;6702;47.068;15.458;2022-08-02T07:05:22;5.03;;;4.03;;
13267;SDS011;6702;47.068;15.458;2022-08-02T07:08:26;3.57;;;3.37;;
13267;SDS011;6702;47.068;15.458;2022-08-02T07:11:33;3.77;;;3.40;;
13267;SDS011;6702;47.068;15.458;2022-08-02T07:14:37;6.30;;;4.07;;
13267;SDS011;6702;47.068;15.458;2022-08-02T07:17:40;34.10;;;8.10;;
13267;SDS011;6702;47.068;15.458;2022-08-02T07:20:43;7.10;;;4.25;;
13267;SDS011;6702;47.068;15.458;2022-08-02T07:23:47;4.35;;;3.60;;
13267;SDS011;6702;47.068;15.458;2022-08-02T07:26:51;23.25;;;7.20;;
13267;SDS011;6702;47.068;15.458;2022-08-02T07:30:11;4.03;;;3.63;;
13267;SDS011;6702;47.068;15.458;2022-08-02T07:33:14;7.05;;;3.58;;
13267;SDS011;6702;47.068;15.458;2022-08-02T07:36:37;6.90;;;4.22;;
13267;SDS011;6702;47.068;15.458;2022-08-02T07:39:43;3.90;;;3.38;;
13267;SDS011;6702;47.068;15.458;2022-08-02T07:42:51;9.23;;;4.15;;
13267;SDS011;6702;47.068;15.458;2022-08-02T07:46:02;7.88;;;3.53;;
13267;SDS011;6702;47.068;15.458;2022-08-02T07:49:06;4.75;;;3.70;;
13267;SDS011;6702;47.068;15.458;2022-08-02T07:52:09;3.40;;;3.20;;
13267;SDS011;6702;47.068;15.458;2022-08-02T07:55:13;3.13;;;2.83;;
13267;SDS011;6702;47.068;15.458;2022-08-02T07:58:19;1.98;;;1.80;;
13267;SDS011;6702;47.068;15.458;2022-08-02T08:01:22;2.60;;;2.40;;
13267;SDS011;6702;47.068;15.458;2022-08-02T08:04:25;2.95;;;2.75;;
13267;SDS011;6702;47.068;15.458;2022-08-02T08:07:28;2.67;;;2.47;;
13267;SDS011;6702;47.068;15.458;2022-08-02T08:10:32;2.92;;;2.72;;
13267;SDS011;6702;47.068;15.458;2022-08-02T08:13:36;2.88;;;2.17;;
13267;SDS011;6702;47.068;15.458;2022-08-02T08:16:39;2.38;;;2.22;;
13267;SDS011;6702;47.068;15.458;2022-08-02T08:19:42;2.67;;;2.47;;
13267;SDS011;6702;47.068;15.458;2022-08-02T08:22:52;2.33;;;2.13;;
13267;SDS011;6702;47.068;15.458;2022-08-02T08:25:55;2.75;;;2.30;;
13267;SDS011;6702;47.068;15.458;2022-08-02T08:29:00;2.63;;;2.42;;
13267;SDS011;6702;47.068;15.458;2022-08-02T08:32:03;7.38;;;2.88;;
13267;SDS011;6702;47.068;15.458;2022-08-02T08:35:07;2.97;;;2.60;;
13267;SDS011;6702;47.068;15.458;2022-08-02T08:38:10;2.60;;;2.40;;
13267;SDS011;6702;47.068;15.458;2022-08-02T08:41:14;2.45;;;2.25;;
13267;SDS011;6702;47.068;15.458;2022-08-02T08:44:19;2.75;;;2.55;;
13267;SDS011;6702;47.068;15.458;2022-08-02T08:47:22;2.95;;;2.63;;
13267;SDS011;6702;47.068;15.458;2022-08-02T08:50:34;3.60;;;2.85;;
13267;SDS011;6702;47.068;15.458;2022-08-02T08:53:43;2.90;;;2.70;;
13267;SDS011;6702;47.068;15.458;2022-08-02T08:56:50;2.60;;;2.40;;
13267;SDS011;6702;47.068;15.458;2022-08-02T08:59:56;2.65;;;2.45;;
13267;SDS011;6702;47.068;15.458;2022-08-02T09:03:00;3.10;;;2.90;;
13267;SDS011;6702;47.068;15.458;2022-08-02T09:06:04;3.53;;;3.28;;
13267;SDS011;6702;47.068;15.458;2022-08-02T09:09:07;2.90;;;2.70;;
13267;SDS011;6702;47.068;15.458;2022-08-02T09:12:14;2.90;;;2.60;;
13267;SDS011;6702;47.068;15.458;2022-08-02T09:15:20;3.10;;;2.80;;
13267;SDS011;6702;47.068;15.458;2022-08-02T09:18:29;3.40;;;2.80;;
13267;SDS011;6702;47.068;15.458;2022-08-02T09:21:33;3.00;;;2.72;;
13267;SDS011;6702;47.068;15.458;2022-08-02T09:24:42;4.47;;;3.80;;
13267;SDS011;6702;47.068;15.458;2022-08-02T09:27:46;3.90;;;3.60;;
13267;SDS011;6702;47.068;15.458;2022-08-02T09:30:52;3.58;;;2.88;;
13267;SDS011;6702;47.068;15.458;2022-08-02T09:33:59;2.80;;;2.60;;
13267;SDS011;6702;47.068;15.458;2022-08-02T09:37:02;3.08;;;2.80;;
13267;SDS011;6702;47.068;15.458;2022-08-02T09:40:05;2.83;;;2.60;;
13267;SDS011;6702;47.068;15.458;2022-08-02T09:43:11;3.40;;;3.20;;
13267;SDS011;6702;47.068;15.458;2022-08-02T09:46:16;3.30;;;3.10;;
13267;SDS011;6702;47.068;15.458;2022-08-02T09:49:25;3.58;;;3.22;;
13267;SDS011;6702;47.068;15.458;2022-08-02T09:52:28;3.58;;;3.28;;
13267;SDS011;6702;47.068;15.458;2022-08-02T09:55:53;2.92;;;2.72;;
13267;SDS011;6702;47.068;15.458;2022-08-02T09:58:57;3.40;;;3.13;;
13267;SDS011;6702;47.068;15.458;2022-08-02T10:02:09;3.85;;;3.13;;
13267;SDS011;6702;47.068;15.458;2022-08-02T10:05:17;2.92;;;2.72;;
13267;SDS011;6702;47.068;15.458;2022-08-02T10:08:24;3.90;;;3.60;;
13267;SDS011;6702;47.068;15.458;2022-08-02T10:11:27;4.07;;;3.00;;
13267;SDS011;6702;47.068;15.458;2022-08-02T10:14:32;3.33;;;2.80;;
13267;SDS011;6702;47.068;15.458;2022-08-02T10:17:37;2.83;;;2.63;;
13267;SDS011;6702;47.068;15.458;2022-08-02T10:20:42;3.58;;;3.25;;
13267;SDS011;6702;47.068;15.458;2022-08-02T10:23:47;2.65;;;2.45;;
13267;SDS011;6702;47.068;15.458;2022-08-02T10:26:51;3.10;;;2.90;;
13267;SDS011;6702;47.068;15.458;2022-08-02T10:29:56;2.67;;;2.47;;
13267;SDS011;6702;47.068;15.458;2022-08-02T10:33:02;3.10;;;2.90;;
13267;SDS011;6702;47.068;15.458;2022-08-02T10:36:06;3.17;;;2.97;;
13267;SDS011;6702;47.068;15.458;2022-08-02T10:39:10;3.33;;;2.60;;
13267;SDS011;6702;47.068;15.458;2022-08-02T10:42:38;3.13;;;2.92;;
13267;SDS011;6702;47.068;15.458;2022-08-02T10:45:48;3.17;;;2.90;;
13267;SDS011;6702;47.068;15.458;2022-08-02T10:52:41;3.85;;;3.53;;
13267;SDS011;6702;47.068;15.458;2022-08-02T10:55:44;3.70;;;3.40;;
13267;SDS011;6702;47.068;15.458;2022-08-02T10:58:49;3.33;;;3.03;;
13267;SDS011;6702;47.068;15.458;2022-08-02T11:06:00;3.77;;;3.37;;
13267;SDS011;6702;47.068;15.458;2022-08-02T11:12:33;5.87;;;3.57;;
13267;SDS011;6702;47.068;15.458;2022-08-02T11:16:04;3.27;;;3.00;;
13267;SDS011;6702;47.068;15.458;2022-08-02T11:19:12;3.97;;;2.77;;
13267;SDS011;6702;47.068;15.458;2022-08-02T11:22:16;3.53;;;2.90;;
13267;SDS011;6702;47.068;15.458;2022-08-02T11:25:29;2.73;;;2.50;;
13267;SDS011;6702;47.068;15.458;2022-08-02T11:28:53;4.97;;;3.10;;
13267;SDS011;6702;47.068;15.458;2022-08-02T11:31:57;3.60;;;3.30;;
13267;SDS011;6702;47.068;15.458;2022-08-02T11:35:01;4.73;;;3.13;;
13267;SDS011;6702;47.068;15.458;2022-08-02T11:38:12;3.10;;;2.90;;
13267;SDS011;6702;47.068;15.458;2022-08-02T11:41:17;3.40;;;3.10;;
13267;SDS011;6702;47.068;15.458;2022-08-02T11:44:41;3.27;;;2.93;;
13267;SDS011;6702;47.068;15.458;2022-08-02T11:47:47;3.23;;;3.03;;
13267;SDS011;6702;47.068;15.458;2022-08-02T11:51:01;3.13;;;2.73;;
13267;SDS011;6702;47.068;15.458;2022-08-02T11:54:09;3.03;;;2.83;;
13267;SDS011;6702;47.068;15.458;2022-08-02T11:57:14;3.10;;;2.77;;
13267;SDS011;6702;47.068;15.458;2022-08-02T12:00:21;2.97;;;2.58;;
13267;SDS011;6702;47.068;15.458;2022-08-02T12:03:34;2.92;;;2.53;;
13267;SDS011;6702;47.068;15.458;2022-08-02T12:06:38;3.47;;;2.40;;
13267;SDS011;6702;47.068;15.458;2022-08-02T12:09:43;3.22;;;2.95;;
13267;SDS011;6702;47.068;15.458;2022-08-02T12:12:47;3.13;;;2.83;;
13267;SDS011;6702;47.068;15.458;2022-08-02T12:15:52;2.78;;;2.58;;
13267;SDS011;6702;47.068;15.458;2022-08-02T12:19:15;5.15;;;3.45;;
13267;SDS011;6702;47.068;15.458;2022-08-02T12:22:22;3.50;;;3.20;;
13267;SDS011;6702;47.068;15.458;2022-08-02T12:25:28;3.20;;;3.00;;
13267;SDS011;6702;47.068;15.458;2022-08-02T12:28:36;3.55;;;2.80;;
13267;SDS011;6702;47.068;15.458;2022-08-02T12:31:41;3.30;;;3.00;;
13267;SDS011;6702;47.068;15.458;2022-08-02T12:35:02;3.75;;;2.78;;
13267;SDS011;6702;47.068;15.458;2022-08-02T12:38:08;2.92;;;2.50;;
13267;SDS011;6702;47.068;15.458;2022-08-02T12:41:13;2.70;;;2.50;;
13267;SDS011;6702;47.068;15.458;2022-08-02T12:44:32;2.90;;;2.35;;
13267;SDS011;6702;47.068;15.458;2022-08-02T12:47:42;2.80;;;2.28;;
13267;SDS011;6702;47.068;15.458;2022-08-02T12:50:47;4.13;;;2.33;;
13267;SDS011;6702;47.068;15.458;2022-08-02T12:53:50;3.13;;;2.05;;
13267;SDS011;6702;47.068;15.458;2022-08-02T12:57:10;2.72;;;2.47;;
13267;SDS011;6702;47.068;15.458;2022-08-02T13:00:21;3.20;;;2.90;;
13267;SDS011;6702;47.068;15.458;2022-08-02T13:03:25;2.88;;;2.67;;
13267;SDS011;6702;47.068;15.458;2022-08-02T13:06:48;4.47;;;3.05;;
13267;SDS011;6702;47.068;15.458;2022-08-02T13:09:51;3.03;;;2.80;;
13267;SDS011;6702;47.068;15.458;2022-08-02T13:13:05;3.30;;;2.85;;
13267;SDS011;6702;47.068;15.458;2022-08-02T13:16:08;3.40;;;3.10;;
13267;SDS011;6702;47.068;15.458;2022-08-02T13:19:12;4.22;;;3.80;;
13267;SDS011;6702;47.068;15.458;2022-08-02T13:22:16;3.90;;;3.50;;
13267;SDS011;6702;47.068;15.458;2022-08-02T13:25:19;3.67;;;3.37;;
13267;SDS011;6702;47.068;15.458;2022-08-02T13:28:25;3.90;;;3.60;;
13267;SDS011;6702;47.068;15.458;2022-08-02T13:31:28;3.93;;;3.63;;
13267;SDS011;6702;47.068;15.458;2022-08-02T13:34:37;4.10;;;3.40;;
13267;SDS011;6702;47.068;15.458;2022-08-02T13:37:40;4.23;;;3.40;;
13267;SDS011;6702;47.068;15.458;2022-08-02T13:40:44;4.27;;;3.50;;
13267;SDS011;6702;47.068;15.458;2022-08-02T13:44:07;6.10;;;3.80;;
13267;SDS011;6702;47.068;15.458;2022-08-02T13:47:11;4.37;;;3.97;;
13267;SDS011;6702;47.068;15.458;2022-08-02T13:50:27;4.00;;;3.70;;
13267;SDS011;6702;47.068;15.458;2022-08-02T13:53:30;4.63;;;4.00;;
13267;SDS011;6702;47.068;15.458;2022-08-02T13:56:33;4.07;;;3.77;;
13267;SDS011;6702;47.068;15.458;2022-08-02T13:59:38;4.43;;;4.00;;
13267;SDS011;6702;47.068;15.458;2022-08-02T14:02:58;3.97;;;3.67;;
13267;SDS011;6702;47.068;15.458;2022-08-02T14:06:02;4.27;;;3.97;;
13267;SDS011;6702;47.068;15.458;2022-08-02T14:09:07;4.63;;;4.10;;
13267;SDS011;6702;47.068;15.458;2022-08-02T14:12:17;4.27;;;3.87;;
13267;SDS011;6702;47.068;15.458;2022-08-02T14:15:21;4.50;;;4.20;;
13267;SDS011;6702;47.068;15.458;2022-08-02T14:18:30;4.90;;;4.60;;
13267;SDS011;6702;47.068;15.458;2022-08-02T14:21:33;4.70;;;4.30;;
13267;SDS011;6702;47.068;15.458;2022-08-02T14:24:47;4.73;;;4.10;;
13267;SDS011;6702;47.068;15.458;2022-08-02T14:27:51;4.30;;;4.00;;
13267;SDS011;6702;47.068;15.458;2022-08-02T14:30:58;5.77;;;3.70;;
13267;SDS011;6702;47.068;15.458;2022-08-02T14:34:01;4.00;;;3.70;;
13267;SDS011;6702;47.068;15.458;2022-08-02T14:37:04;4.07;;;3.08;;
13267;SDS011;6702;47.068;15.458;2022-08-02T14:40:08;3.30;;;3.10;;
13267;SDS011;6702;47.068;15.458;2022-08-02T14:43:30;4.82;;;3.45;;
13267;SDS011;6702;47.068;15.458;2022-08-02T14:46:52;3.67;;;3.38;;
13267;SDS011;6702;47.068;15.458;2022-08-02T14:49:56;4.78;;;3.28;;
13267;SDS011;6702;47.068;15.458;2022-08-02T14:52:59;3.10;;;2.90;;
13267;SDS011;6702;47.068;15.458;2022-08-02T14:56:02;4.05;;;2.97;;
13267;SDS011;6702;47.068;15.458;2022-08-02T14:59:06;3.08;;;2.72;;
13267;SDS011;6702;47.068;15.458;2022-08-02T15:02:10;6.15;;;3.03;;
13267;SDS011;6702;47.068;15.458;2022-08-02T15:05:15;3.70;;;3.40;;
13267;SDS011;6702;47.068;15.458;2022-08-02T15:08:18;5.68;;;3.03;;
13267;SDS011;6702;47.068;15.458;2022-08-02T15:11:21;3.25;;;3.05;;
13267;SDS011;6702;47.068;15.458;2022-08-02T15:14:24;3.80;;;3.30;;
13267;SDS011;6702;47.068;15.458;2022-08-02T15:17:29;4.05;;;3.75;;
13267;SDS011;6702;47.068;15.458;2022-08-02T15:20:32;4.22;;;3.92;;
13267;SDS011;6702;47.068;15.458;2022-08-02T15:23:35;3.30;;;3.10;;
13267;SDS011;6702;47.068;15.458;2022-08-02T15:26:39;3.53;;;3.33;;
13267;SDS011;6702;47.068;15.458;2022-08-02T15:29:42;3.40;;;3.10;;
13267;SDS011;6702;47.068;15.458;2022-08-02T15:32:48;3.70;;;3.40;;
13267;SDS011;6702;47.068;15.458;2022-08-02T15:35:53;3.63;;;3.17;;
13267;SDS011;6702;47.068;15.458;2022-08-02T15:38:56;3.42;;;3.20;;
13267;SDS011;6702;47.068;15.458;2022-08-02T15:42:00;3.67;;;3.45;;
13267;SDS011;6702;47.068;15.458;2022-08-02T15:45:03;3.38;;;3.15;;
13267;SDS011;6702;47.068;15.458;2022-08-02T15:48:08;3.83;;;3.60;;
13267;SDS011;6702;47.068;15.458;2022-08-02T15:51:11;4.22;;;3.92;;
13267;SDS011;6702;47.068;15.458;2022-08-02T15:54:14;3.60;;;3.30;;
13267;SDS011;6702;47.068;15.458;2022-08-02T15:57:17;3.53;;;3.22;;
13267;SDS011;6702;47.068;15.458;2022-08-02T16:00:21;4.40;;;3.20;;
13267;SDS011;6702;47.068;15.458;2022-08-02T16:03:25;3.47;;;3.28;;
13267;SDS011;6702;47.068;15.458;2022-08-02T16:06:28;5.10;;;3.63;;
13267;SDS011;6702;47.068;15.458;2022-08-02T16:09:31;4.00;;;3.70;;
13267;SDS011;6702;47.068;15.458;2022-08-02T16:12:35;4.30;;;4.00;;
13267;SDS011;6702;47.068;15.458;2022-08-02T16:15:38;3.97;;;3.57;;
13267;SDS011;6702;47.068;15.458;2022-08-02T16:18:42;3.67;;;3.40;;
13267;SDS011;6702;47.068;15.458;2022-08-02T16:21:45;4.13;;;3.73;;
13267;SDS011;6702;47.068;15.458;2022-08-02T16:24:50;4.23;;;3.83;;
13267;SDS011;6702;47.068;15.458;2022-08-02T16:27:53;3.70;;;3.40;;
13267;SDS011;6702;47.068;15.458;2022-08-02T16:31:07;5.30;;;3.53;;
13267;SDS011;6702;47.068;15.458;2022-08-02T16:34:13;3.83;;;3.50;;
13267;SDS011;6702;47.068;15.458;2022-08-02T16:37:16;3.50;;;3.30;;
13267;SDS011;6702;47.068;15.458;2022-08-02T16:40:20;3.60;;;3.30;;
13267;SDS011;6702;47.068;15.458;2022-08-02T16:43:23;3.80;;;3.53;;
13267;SDS011;6702;47.068;15.458;2022-08-02T16:46:27;3.63;;;3.20;;
13267;SDS011;6702;47.068;15.458;2022-08-02T16:49:32;4.43;;;4.00;;
13267;SDS011;6702;47.068;15.458;2022-08-02T16:52:55;4.00;;;3.70;;
13267;SDS011;6702;47.068;15.458;2022-08-02T16:55:59;3.43;;;3.10;;
13267;SDS011;6702;47.068;15.458;2022-08-02T16:59:02;3.87;;;3.60;;
13267;SDS011;6702;47.068;15.458;2022-08-02T17:02:13;3.73;;;3.43;;
13267;SDS011;6702;47.068;15.458;2022-08-02T17:05:21;3.60;;;3.40;;
13267;SDS011;6702;47.068;15.458;2022-08-02T17:08:37;6.10;;;4.20;;
13267;SDS011;6702;47.068;15.458;2022-08-02T17:11:54;3.63;;;3.30;;
13267;SDS011;6702;47.068;15.458;2022-08-02T17:15:00;3.90;;;3.50;;
13267;SDS011;6702;47.068;15.458;2022-08-02T17:18:23;3.83;;;3.50;;
13267;SDS011;6702;47.068;15.458;2022-08-02T17:21:28;4.60;;;4.20;;
13267;SDS011;6702;47.068;15.458;2022-08-02T17:24:34;3.80;;;3.50;;
13267;SDS011;6702;47.068;15.458;2022-08-02T17:27:38;4.43;;;3.77;;
13267;SDS011;6702;47.068;15.458;2022-08-02T17:30:41;4.00;;;3.70;;
13267;SDS011;6702;47.068;15.458;2022-08-02T17:33:45;3.93;;;3.63;;
13267;SDS011;6702;47.068;15.458;2022-08-02T17:36:49;4.73;;;4.03;;
13267;SDS011;6702;47.068;15.458;2022-08-02T17:39:53;4.83;;;4.30;;
13267;SDS011;6702;47.068;15.458;2022-08-02T17:42:57;4.50;;;4.10;;
13267;SDS011;6702;47.068;15.458;2022-08-02T17:46:00;4.27;;;3.97;;
13267;SDS011;6702;47.068;15.458;2022-08-02T17:49:07;4.40;;;4.10;;
13267;SDS011;6702;47.068;15.458;2022-08-02T17:52:22;5.40;;;4.67;;
13267;SDS011;6702;47.068;15.458;2022-08-02T17:55:45;4.93;;;4.63;;
13267;SDS011;6702;47.068;15.458;2022-08-02T17:58:51;5.10;;;4.63;;
13267;SDS011;6702;47.068;15.458;2022-08-02T18:01:55;4.73;;;4.30;;
13267;SDS011;6702;47.068;15.458;2022-08-02T18:05:04;4.50;;;4.20;;
13267;SDS011;6702;47.068;15.458;2022-08-02T18:08:14;4.50;;;4.20;;
13267;SDS011;6702;47.068;15.458;2022-08-02T18:11:38;4.40;;;4.00;;
13267;SDS011;6702;47.068;15.458;2022-08-02T18:14:53;4.90;;;4.50;;
13267;SDS011;6702;47.068;15.458;2022-08-02T18:17:56;5.57;;;4.60;;
13267;SDS011;6702;47.068;15.458;2022-08-02T18:20:59;4.60;;;4.20;;
13267;SDS011;6702;47.068;15.458;2022-08-02T18:24:24;4.53;;;4.23;;
13267;SDS011;6702;47.068;15.458;2022-08-02T18:27:29;4.60;;;4.30;;
13267;SDS011;6702;47.068;15.458;2022-08-02T18:30:32;3.93;;;3.60;;
13267;SDS011;6702;47.068;15.458;2022-08-02T18:33:36;4.03;;;3.70;;
13267;SDS011;6702;47.068;15.458;2022-08-02T18:36:59;3.97;;;3.57;;
13267;SDS011;6702;47.068;15.458;2022-08-02T18:40:04;3.40;;;3.10;;
13267;SDS011;6702;47.068;15.458;2022-08-02T18:43:08;5.67;;;4.10;;
13267;SDS011;6702;47.068;15.458;2022-08-02T18:46:14;3.23;;;2.93;;
13267;SDS011;6702;47.068;15.458;2022-08-02T18:49:20;4.00;;;3.70;;
13267;SDS011;6702;47.068;15.458;2022-08-02T18:52:30;3.63;;;3.33;;
13267;SDS011;6702;47.068;15.458;2022-08-02T18:55:35;3.17;;;2.90;;
13267;SDS011;6702;47.068;15.458;2022-08-02T18:58:58;3.13;;;2.93;;